sensor_id;sensor_type;location;lat;lon;timestamp;temperature;humidity
61151;DHT22;47029;50.994;2.876;2022-09-14T00:01:40;17.00;99.90
61151;DHT22;47029;50.994;2.876;2022-09-14T00:04:13;16.90;99.90
61151;DHT22;47029;50.994;2.876;2022-09-14T00:06:40;17.10;99.90
61151;DHT22;47029;50.994;2.876;2022-09-14T00:09:07;17.10;99.90
61151;DHT22;47029;50.994;2.876;2022-09-14T00:11:36;17.20;99.90
61151;DHT22;47029;50.994;2.876;2022-09-14T00:14:03;17.10;99.90
61151;DHT22;47029;50.994;2.876;2022-09-14T00:16:35;17.10;99.90
61151;DHT22;47029;50.994;2.876;2022-09-14T00:19:05;17.00;99.90
61151;DHT22;47029;50.994;2.876;2022-09-14T00:21:33;17.00;99.90
61151;DHT22;47029;50.994;2.876;2022-09-14T00:23:59;17.00;99.90
61151;DHT22;47029;50.994;2.876;2022-09-14T00:26:25;16.90;99.90
61151;DHT22;47029;50.994;2.876;2022-09-14T00:28:56;16.90;99.90
61151;DHT22;47029;50.994;2.876;2022-09-14T00:31:23;17.00;99.90
61151;DHT22;47029;50.994;2.876;2022-09-14T00:33:50;16.90;99.90
61151;DHT22;47029;50.994;2.876;2022-09-14T00:36:25;16.90;99.90
61151;DHT22;47029;50.994;2.876;2022-09-14T00:38:51;16.90;99.90
61151;DHT22;47029;50.994;2.876;2022-09-14T00:41:25;16.90;99.90
61151;DHT22;47029;50.994;2.876;2022-09-14T00:44:02;16.90;99.90
61151;DHT22;47029;50.994;2.876;2022-09-14T00:46:30;16.90;99.90
61151;DHT22;47029;50.994;2.876;2022-09-14T00:48:59;16.90;99.90
61151;DHT22;47029;50.994;2.876;2022-09-14T00:51:28;16.90;99.90
61151;DHT22;47029;50.994;2.876;2022-09-14T00:53:54;17.00;99.90
61151;DHT22;47029;50.994;2.876;2022-09-14T00:56:20;16.90;99.90
61151;DHT22;47029;50.994;2.876;2022-09-14T00:58:48;16.80;99.90
61151;DHT22;47029;50.994;2.876;2022-09-14T01:01:15;16.80;99.90
61151;DHT22;47029;50.994;2.876;2022-09-14T01:03:41;16.70;99.90
61151;DHT22;47029;50.994;2.876;2022-09-14T01:06:35;16.60;99.90
61151;DHT22;47029;50.994;2.876;2022-09-14T01:17:48;16.70;99.90
61151;DHT22;47029;50.994;2.876;2022-09-14T01:20:39;16.80;99.90
61151;DHT22;47029;50.994;2.876;2022-09-14T01:28:26;16.80;99.90
61151;DHT22;47029;50.994;2.876;2022-09-14T01:30:57;16.70;99.90
61151;DHT22;47029;50.994;2.876;2022-09-14T01:33:32;16.70;99.90
61151;DHT22;47029;50.994;2.876;2022-09-14T01:36:01;16.70;99.90
61151;DHT22;47029;50.994;2.876;2022-09-14T01:38:32;16.80;99.90
61151;DHT22;47029;50.994;2.876;2022-09-14T01:41:02;16.70;99.90
61151;DHT22;47029;50.994;2.876;2022-09-14T01:43:33;16.80;99.90
61151;DHT22;47029;50.994;2.876;2022-09-14T01:46:09;16.80;99.90
61151;DHT22;47029;50.994;2.876;2022-09-14T01:48:41;16.10;99.90
61151;DHT22;47029;50.994;2.876;2022-09-14T01:51:11;16.80;99.90
61151;DHT22;47029;50.994;2.876;2022-09-14T01:53:48;16.80;99.90
61151;DHT22;47029;50.994;2.876;2022-09-14T01:56:24;16.80;99.90
61151;DHT22;47029;50.994;2.876;2022-09-14T01:58:57;16.80;99.90
61151;DHT22;47029;50.994;2.876;2022-09-14T02:01:32;16.80;99.90
61151;DHT22;47029;50.994;2.876;2022-09-14T02:04:03;16.80;99.90
61151;DHT22;47029;50.994;2.876;2022-09-14T02:06:38;16.90;99.90
61151;DHT22;47029;50.994;2.876;2022-09-14T02:09:06;16.90;99.90
61151;DHT22;47029;50.994;2.876;2022-09-14T02:11:33;17.00;99.90
61151;DHT22;47029;50.994;2.876;2022-09-14T02:13:59;17.00;99.90
61151;DHT22;47029;50.994;2.876;2022-09-14T02:16:25;16.90;99.90
61151;DHT22;47029;50.994;2.876;2022-09-14T02:18:51;16.90;99.90
61151;DHT22;47029;50.994;2.876;2022-09-14T02:21:21;16.90;99.90
61151;DHT22;47029;50.994;2.876;2022-09-14T02:23:47;16.80;99.90
61151;DHT22;47029;50.994;2.876;2022-09-14T02:26:16;16.90;99.90
61151;DHT22;47029;50.994;2.876;2022-09-14T02:28:43;16.90;99.90
61151;DHT22;47029;50.994;2.876;2022-09-14T02:31:11;16.80;99.90
61151;DHT22;47029;50.994;2.876;2022-09-14T02:42:49;16.40;99.90
61151;DHT22;47029;50.994;2.876;2022-09-14T02:45:38;16.60;99.90
61151;DHT22;47029;50.994;2.876;2022-09-14T02:56:01;16.50;99.90
61151;DHT22;47029;50.994;2.876;2022-09-14T02:58:37;16.40;99.90
61151;DHT22;47029;50.994;2.876;2022-09-14T03:01:04;16.50;99.90
61151;DHT22;47029;50.994;2.876;2022-09-14T03:03:30;16.50;99.90
61151;DHT22;47029;50.994;2.876;2022-09-14T03:05:56;16.50;99.90
61151;DHT22;47029;50.994;2.876;2022-09-14T03:08:23;16.40;99.90
61151;DHT22;47029;50.994;2.876;2022-09-14T03:10:49;16.40;99.90
61151;DHT22;47029;50.994;2.876;2022-09-14T03:13:16;16.30;99.90
61151;DHT22;47029;50.994;2.876;2022-09-14T03:15:41;16.30;99.90
61151;DHT22;47029;50.994;2.876;2022-09-14T03:18:08;16.20;99.90
61151;DHT22;47029;50.994;2.876;2022-09-14T03:20:34;16.20;99.90
61151;DHT22;47029;50.994;2.876;2022-09-14T03:23:01;16.00;99.90
61151;DHT22;47029;50.994;2.876;2022-09-14T03:25:27;16.00;99.90
61151;DHT22;47029;50.994;2.876;2022-09-14T03:27:58;16.00;99.90
61151;DHT22;47029;50.994;2.876;2022-09-14T03:30:25;16.00;99.90
61151;DHT22;47029;50.994;2.876;2022-09-14T03:32:51;15.90;99.90
61151;DHT22;47029;50.994;2.876;2022-09-14T03:35:18;15.80;99.90
61151;DHT22;47029;50.994;2.876;2022-09-14T03:37:44;15.80;99.90
61151;DHT22;47029;50.994;2.876;2022-09-14T03:40:12;15.90;99.90
61151;DHT22;47029;50.994;2.876;2022-09-14T03:42:43;15.90;99.90
61151;DHT22;47029;50.994;2.876;2022-09-14T03:45:11;15.90;99.90
61151;DHT22;47029;50.994;2.876;2022-09-14T03:47:38;15.80;99.90
61151;DHT22;47029;50.994;2.876;2022-09-14T03:50:05;15.80;99.90
61151;DHT22;47029;50.994;2.876;2022-09-14T03:52:31;15.90;99.90
61151;DHT22;47029;50.994;2.876;2022-09-14T03:54:57;15.90;99.90
61151;DHT22;47029;50.994;2.876;2022-09-14T03:57:23;15.90;99.90
61151;DHT22;47029;50.994;2.876;2022-09-14T03:59:49;15.90;99.90
61151;DHT22;47029;50.994;2.876;2022-09-14T04:02:15;15.80;99.90
61151;DHT22;47029;50.994;2.876;2022-09-14T04:04:40;15.80;99.90
61151;DHT22;47029;50.994;2.876;2022-09-14T04:07:06;15.70;99.90
61151;DHT22;47029;50.994;2.876;2022-09-14T04:09:32;15.80;99.90
61151;DHT22;47029;50.994;2.876;2022-09-14T04:11:58;15.80;99.90
61151;DHT22;47029;50.994;2.876;2022-09-14T04:14:24;15.90;99.90
61151;DHT22;47029;50.994;2.876;2022-09-14T04:16:50;15.80;99.90
61151;DHT22;47029;50.994;2.876;2022-09-14T04:19:16;15.90;99.90
61151;DHT22;47029;50.994;2.876;2022-09-14T04:21:42;15.80;99.90
61151;DHT22;47029;50.994;2.876;2022-09-14T04:24:11;15.80;99.90
61151;DHT22;47029;50.994;2.876;2022-09-14T04:26:38;15.70;99.90
61151;DHT22;47029;50.994;2.876;2022-09-14T04:29:04;15.80;99.90
61151;DHT22;47029;50.994;2.876;2022-09-14T04:31:30;15.60;99.90
61151;DHT22;47029;50.994;2.876;2022-09-14T04:33:56;15.70;99.90
61151;DHT22;47029;50.994;2.876;2022-09-14T04:36:25;15.80;99.90
61151;DHT22;47029;50.994;2.876;2022-09-14T04:38:54;15.70;99.90
61151;DHT22;47029;50.994;2.876;2022-09-14T04:41:20;15.70;99.90
61151;DHT22;47029;50.994;2.876;2022-09-14T04:43:48;15.70;99.90
61151;DHT22;47029;50.994;2.876;2022-09-14T04:46:20;15.60;99.90
61151;DHT22;47029;50.994;2.876;2022-09-14T04:48:47;15.60;99.90
61151;DHT22;47029;50.994;2.876;2022-09-14T04:51:23;15.50;99.90
61151;DHT22;47029;50.994;2.876;2022-09-14T04:53:51;15.60;99.90
61151;DHT22;47029;50.994;2.876;2022-09-14T04:56:19;15.50;99.90
61151;DHT22;47029;50.994;2.876;2022-09-14T04:58:48;15.50;99.90
61151;DHT22;47029;50.994;2.876;2022-09-14T05:01:23;15.50;99.90
61151;DHT22;47029;50.994;2.876;2022-09-14T05:03:49;15.50;99.90
61151;DHT22;47029;50.994;2.876;2022-09-14T05:06:18;15.50;99.90
61151;DHT22;47029;50.994;2.876;2022-09-14T05:08:45;15.60;99.90
61151;DHT22;47029;50.994;2.876;2022-09-14T05:11:16;15.50;99.90
61151;DHT22;47029;50.994;2.876;2022-09-14T05:13:42;15.50;99.90
61151;DHT22;47029;50.994;2.876;2022-09-14T05:16:21;15.40;99.90
61151;DHT22;47029;50.994;2.876;2022-09-14T05:18:48;15.50;99.90
61151;DHT22;47029;50.994;2.876;2022-09-14T05:21:16;15.60;99.90
61151;DHT22;47029;50.994;2.876;2022-09-14T05:23:42;15.50;99.90
61151;DHT22;47029;50.994;2.876;2022-09-14T05:26:08;15.60;99.90
61151;DHT22;47029;50.994;2.876;2022-09-14T05:28:35;15.70;99.90
61151;DHT22;47029;50.994;2.876;2022-09-14T05:31:05;15.60;99.90
61151;DHT22;47029;50.994;2.876;2022-09-14T05:33:31;15.70;99.90
61151;DHT22;47029;50.994;2.876;2022-09-14T05:36:02;15.80;99.90
61151;DHT22;47029;50.994;2.876;2022-09-14T05:38:30;15.70;99.90
61151;DHT22;47029;50.994;2.876;2022-09-14T05:40:55;15.70;99.90
61151;DHT22;47029;50.994;2.876;2022-09-14T05:43:21;15.70;99.90
61151;DHT22;47029;50.994;2.876;2022-09-14T05:45:48;15.70;99.90
61151;DHT22;47029;50.994;2.876;2022-09-14T05:48:14;15.70;99.90
61151;DHT22;47029;50.994;2.876;2022-09-14T05:50:40;15.80;99.90
61151;DHT22;47029;50.994;2.876;2022-09-14T05:53:06;15.70;99.90
61151;DHT22;47029;50.994;2.876;2022-09-14T05:55:31;15.80;99.90
61151;DHT22;47029;50.994;2.876;2022-09-14T05:57:57;15.90;99.90
61151;DHT22;47029;50.994;2.876;2022-09-14T06:00:23;15.90;99.90
61151;DHT22;47029;50.994;2.876;2022-09-14T06:02:51;16.00;99.90
61151;DHT22;47029;50.994;2.876;2022-09-14T06:05:18;16.10;99.90
61151;DHT22;47029;50.994;2.876;2022-09-14T06:07:44;16.30;99.90
61151;DHT22;47029;50.994;2.876;2022-09-14T06:10:11;16.30;99.90
61151;DHT22;47029;50.994;2.876;2022-09-14T06:12:37;16.20;99.90
61151;DHT22;47029;50.994;2.876;2022-09-14T06:15:03;16.20;99.90
61151;DHT22;47029;50.994;2.876;2022-09-14T06:17:29;16.20;99.90
61151;DHT22;47029;50.994;2.876;2022-09-14T06:19:55;16.40;99.90
61151;DHT22;47029;50.994;2.876;2022-09-14T06:22:21;16.30;99.90
61151;DHT22;47029;50.994;2.876;2022-09-14T06:24:47;16.20;99.90
61151;DHT22;47029;50.994;2.876;2022-09-14T06:27:13;16.20;99.90
61151;DHT22;47029;50.994;2.876;2022-09-14T06:29:40;16.20;99.90
61151;DHT22;47029;50.994;2.876;2022-09-14T06:32:06;16.20;99.90
61151;DHT22;47029;50.994;2.876;2022-09-14T06:34:31;16.20;99.90
61151;DHT22;47029;50.994;2.876;2022-09-14T06:36:57;16.10;99.90
61151;DHT22;47029;50.994;2.876;2022-09-14T06:39:23;16.10;99.90
61151;DHT22;47029;50.994;2.876;2022-09-14T06:41:49;16.10;99.90
61151;DHT22;47029;50.994;2.876;2022-09-14T06:44:16;16.10;99.90
61151;DHT22;47029;50.994;2.876;2022-09-14T06:46:42;16.00;99.90
61151;DHT22;47029;50.994;2.876;2022-09-14T06:49:13;16.00;99.90
61151;DHT22;47029;50.994;2.876;2022-09-14T06:51:45;15.90;99.90
61151;DHT22;47029;50.994;2.876;2022-09-14T06:54:13;16.00;99.90
61151;DHT22;47029;50.994;2.876;2022-09-14T06:56:41;16.00;99.90
61151;DHT22;47029;50.994;2.876;2022-09-14T06:59:08;16.00;99.90
61151;DHT22;47029;50.994;2.876;2022-09-14T07:01:34;15.90;99.90
61151;DHT22;47029;50.994;2.876;2022-09-14T07:04:00;15.90;99.90
61151;DHT22;47029;50.994;2.876;2022-09-14T07:06:29;15.90;99.90
61151;DHT22;47029;50.994;2.876;2022-09-14T07:08:55;16.00;99.90
61151;DHT22;47029;50.994;2.876;2022-09-14T07:11:24;16.00;99.90
61151;DHT22;47029;50.994;2.876;2022-09-14T07:13:53;15.80;99.90
61151;DHT22;47029;50.994;2.876;2022-09-14T07:16:20;15.80;99.90
61151;DHT22;47029;50.994;2.876;2022-09-14T07:18:46;15.90;99.90
61151;DHT22;47029;50.994;2.876;2022-09-14T07:21:14;15.80;99.90
61151;DHT22;47029;50.994;2.876;2022-09-14T07:23:42;15.80;99.90
61151;DHT22;47029;50.994;2.876;2022-09-14T07:26:12;15.80;99.90
61151;DHT22;47029;50.994;2.876;2022-09-14T07:28:39;15.80;99.90
61151;DHT22;47029;50.994;2.876;2022-09-14T07:31:14;15.90;99.90
61151;DHT22;47029;50.994;2.876;2022-09-14T07:33:40;15.90;99.90
61151;DHT22;47029;50.994;2.876;2022-09-14T07:36:08;15.90;99.90
61151;DHT22;47029;50.994;2.876;2022-09-14T07:38:34;15.90;99.90
61151;DHT22;47029;50.994;2.876;2022-09-14T07:41:00;15.90;99.90
61151;DHT22;47029;50.994;2.876;2022-09-14T07:43:26;16.00;99.90
61151;DHT22;47029;50.994;2.876;2022-09-14T07:45:52;16.10;99.90
61151;DHT22;47029;50.994;2.876;2022-09-14T07:48:18;16.10;99.90
61151;DHT22;47029;50.994;2.876;2022-09-14T07:50:45;16.10;99.90
61151;DHT22;47029;50.994;2.876;2022-09-14T07:53:11;16.30;99.90
61151;DHT22;47029;50.994;2.876;2022-09-14T07:55:38;16.10;99.90
61151;DHT22;47029;50.994;2.876;2022-09-14T07:58:04;16.10;99.90
61151;DHT22;47029;50.994;2.876;2022-09-14T08:00:30;16.20;99.90
61151;DHT22;47029;50.994;2.876;2022-09-14T08:02:56;16.30;99.90
61151;DHT22;47029;50.994;2.876;2022-09-14T08:05:23;16.10;99.90
61151;DHT22;47029;50.994;2.876;2022-09-14T08:07:56;16.10;99.90
61151;DHT22;47029;50.994;2.876;2022-09-14T08:10:23;16.10;99.90
61151;DHT22;47029;50.994;2.876;2022-09-14T08:12:54;16.00;99.90
61151;DHT22;47029;50.994;2.876;2022-09-14T08:15:21;16.10;99.90
61151;DHT22;47029;50.994;2.876;2022-09-14T08:17:48;16.20;99.90
61151;DHT22;47029;50.994;2.876;2022-09-14T08:20:14;16.10;99.90
61151;DHT22;47029;50.994;2.876;2022-09-14T08:22:42;16.10;99.90
61151;DHT22;47029;50.994;2.876;2022-09-14T08:25:09;16.10;99.90
61151;DHT22;47029;50.994;2.876;2022-09-14T08:27:35;16.00;99.90
61151;DHT22;47029;50.994;2.876;2022-09-14T08:30:01;16.00;99.90
61151;DHT22;47029;50.994;2.876;2022-09-14T08:32:27;16.00;99.90
61151;DHT22;47029;50.994;2.876;2022-09-14T08:34:53;16.00;99.90
61151;DHT22;47029;50.994;2.876;2022-09-14T08:37:19;16.00;99.90
61151;DHT22;47029;50.994;2.876;2022-09-14T08:39:45;16.00;99.90
61151;DHT22;47029;50.994;2.876;2022-09-14T08:42:16;16.10;99.90
61151;DHT22;47029;50.994;2.876;2022-09-14T08:44:44;16.20;99.90
61151;DHT22;47029;50.994;2.876;2022-09-14T08:50:04;16.30;99.90
61151;DHT22;47029;50.994;2.876;2022-09-14T08:52:46;16.10;99.90
61151;DHT22;47029;50.994;2.876;2022-09-14T08:55:32;16.00;99.90
61151;DHT22;47029;50.994;2.876;2022-09-14T09:01:32;16.20;99.90
61151;DHT22;47029;50.994;2.876;2022-09-14T09:09:52;16.30;99.90
61151;DHT22;47029;50.994;2.876;2022-09-14T09:11:53;16.20;99.90
61151;DHT22;47029;50.994;2.876;2022-09-14T09:14:30;16.20;99.90
61151;DHT22;47029;50.994;2.876;2022-09-14T09:17:01;16.20;99.90
61151;DHT22;47029;50.994;2.876;2022-09-14T09:19:32;16.30;99.90
61151;DHT22;47029;50.994;2.876;2022-09-14T09:22:00;16.40;99.90
61151;DHT22;47029;50.994;2.876;2022-09-14T09:24:44;16.40;99.90
61151;DHT22;47029;50.994;2.876;2022-09-14T09:27:14;16.40;99.90
61151;DHT22;47029;50.994;2.876;2022-09-14T09:29:41;16.20;99.90
61151;DHT22;47029;50.994;2.876;2022-09-14T09:32:14;16.00;99.90
61151;DHT22;47029;50.994;2.876;2022-09-14T09:34:41;16.00;99.90
61151;DHT22;47029;50.994;2.876;2022-09-14T09:37:25;16.10;99.90
61151;DHT22;47029;50.994;2.876;2022-09-14T09:39:51;16.10;99.90
61151;DHT22;47029;50.994;2.876;2022-09-14T09:45:02;16.20;99.90
61151;DHT22;47029;50.994;2.876;2022-09-14T09:47:29;16.10;99.90
61151;DHT22;47029;50.994;2.876;2022-09-14T09:49:59;16.10;99.90
61151;DHT22;47029;50.994;2.876;2022-09-14T09:52:26;16.10;99.90
61151;DHT22;47029;50.994;2.876;2022-09-14T09:54:53;16.10;99.90
61151;DHT22;47029;50.994;2.876;2022-09-14T09:57:29;16.20;99.90
61151;DHT22;47029;50.994;2.876;2022-09-14T10:02:39;16.20;99.90
61151;DHT22;47029;50.994;2.876;2022-09-14T10:10:18;16.10;99.90
61151;DHT22;47029;50.994;2.876;2022-09-14T10:12:47;16.00;99.90
61151;DHT22;47029;50.994;2.876;2022-09-14T10:15:21;15.80;99.90
61151;DHT22;47029;50.994;2.876;2022-09-14T10:23:20;15.90;99.90
61151;DHT22;47029;50.994;2.876;2022-09-14T10:28:47;15.90;99.90
61151;DHT22;47029;50.994;2.876;2022-09-14T10:36:30;15.80;99.90
61151;DHT22;47029;50.994;2.876;2022-09-14T10:46:48;15.90;99.90
61151;DHT22;47029;50.994;2.876;2022-09-14T10:51:58;16.00;99.90
61151;DHT22;47029;50.994;2.876;2022-09-14T10:54:49;15.90;99.90
61151;DHT22;47029;50.994;2.876;2022-09-14T10:57:38;16.10;99.90
61151;DHT22;47029;50.994;2.876;2022-09-14T11:00:10;16.10;99.90
61151;DHT22;47029;50.994;2.876;2022-09-14T11:05:30;16.00;99.90
61151;DHT22;47029;50.994;2.876;2022-09-14T11:13:51;16.30;99.90
61151;DHT22;47029;50.994;2.876;2022-09-14T11:27:25;16.20;99.90
61151;DHT22;47029;50.994;2.876;2022-09-14T11:30:02;16.20;99.90
61151;DHT22;47029;50.994;2.876;2022-09-14T11:32:38;16.10;99.90
61151;DHT22;47029;50.994;2.876;2022-09-14T11:38:00;16.00;99.90
61151;DHT22;47029;50.994;2.876;2022-09-14T11:40:34;16.10;99.90
61151;DHT22;47029;50.994;2.876;2022-09-14T11:45:36;16.10;99.90
61151;DHT22;47029;50.994;2.876;2022-09-14T11:48:30;16.10;99.90
61151;DHT22;47029;50.994;2.876;2022-09-14T11:51:30;16.00;99.90
61151;DHT22;47029;50.994;2.876;2022-09-14T11:53:57;16.00;99.90
61151;DHT22;47029;50.994;2.876;2022-09-14T11:56:31;16.00;99.90
61151;DHT22;47029;50.994;2.876;2022-09-14T11:59:00;16.00;99.90
61151;DHT22;47029;50.994;2.876;2022-09-14T12:04:11;16.10;99.90
61151;DHT22;47029;50.994;2.876;2022-09-14T12:11:42;16.20;99.90
61151;DHT22;47029;50.994;2.876;2022-09-14T12:14:26;16.20;99.90
61151;DHT22;47029;50.994;2.876;2022-09-14T12:22:48;16.00;99.90
61151;DHT22;47029;50.994;2.876;2022-09-14T12:25:17;15.90;99.90
61151;DHT22;47029;50.994;2.876;2022-09-14T12:27:45;15.90;99.90
61151;DHT22;47029;50.994;2.876;2022-09-14T12:36:00;15.70;99.90
61151;DHT22;47029;50.994;2.876;2022-09-14T12:46:32;15.70;99.90
61151;DHT22;47029;50.994;2.876;2022-09-14T12:49:15;15.70;99.90
61151;DHT22;47029;50.994;2.876;2022-09-14T12:51:48;15.60;99.90
61151;DHT22;47029;50.994;2.876;2022-09-14T13:00:15;16.00;99.90
61151;DHT22;47029;50.994;2.876;2022-09-14T13:05:23;16.10;99.90
61151;DHT22;47029;50.994;2.876;2022-09-14T13:07:50;16.10;99.90
61151;DHT22;47029;50.994;2.876;2022-09-14T13:10:24;16.00;99.90
61151;DHT22;47029;50.994;2.876;2022-09-14T13:12:51;16.00;99.90
61151;DHT22;47029;50.994;2.876;2022-09-14T13:18:03;16.20;99.90
61151;DHT22;47029;50.994;2.876;2022-09-14T13:20:32;16.10;99.90
61151;DHT22;47029;50.994;2.876;2022-09-14T13:22:59;16.00;99.90
61151;DHT22;47029;50.994;2.876;2022-09-14T13:25:32;16.00;99.90
61151;DHT22;47029;50.994;2.876;2022-09-14T13:28:04;16.00;99.90
61151;DHT22;47029;50.994;2.876;2022-09-14T13:30:32;16.00;99.90
61151;DHT22;47029;50.994;2.876;2022-09-14T13:32:59;15.90;99.90
61151;DHT22;47029;50.994;2.876;2022-09-14T13:35:27;15.90;99.90
61151;DHT22;47029;50.994;2.876;2022-09-14T13:37:55;16.10;99.90
61151;DHT22;47029;50.994;2.876;2022-09-14T13:40:24;15.90;99.90
61151;DHT22;47029;50.994;2.876;2022-09-14T13:42:53;15.90;99.90
61151;DHT22;47029;50.994;2.876;2022-09-14T13:45:20;15.90;99.90
61151;DHT22;47029;50.994;2.876;2022-09-14T13:47:47;16.00;99.90
61151;DHT22;47029;50.994;2.876;2022-09-14T13:50:13;16.00;99.90
61151;DHT22;47029;50.994;2.876;2022-09-14T13:52:40;15.90;99.90
61151;DHT22;47029;50.994;2.876;2022-09-14T13:57:37;15.70;99.90
61151;DHT22;47029;50.994;2.876;2022-09-14T14:00:18;15.70;99.90
61151;DHT22;47029;50.994;2.876;2022-09-14T14:02:48;15.70;99.90
61151;DHT22;47029;50.994;2.876;2022-09-14T14:05:32;15.70;99.90
61151;DHT22;47029;50.994;2.876;2022-09-14T14:08:00;15.60;99.90
61151;DHT22;47029;50.994;2.876;2022-09-14T14:13:01;15.70;99.90
61151;DHT22;47029;50.994;2.876;2022-09-14T14:15:32;15.90;99.90
61151;DHT22;47029;50.994;2.876;2022-09-14T14:18:00;16.20;99.90
61151;DHT22;47029;50.994;2.876;2022-09-14T14:20:28;16.10;99.90
61151;DHT22;47029;50.994;2.876;2022-09-14T14:25:38;16.10;99.90
61151;DHT22;47029;50.994;2.876;2022-09-14T14:28:25;16.10;99.90
61151;DHT22;47029;50.994;2.876;2022-09-14T14:30:52;16.30;99.90
61151;DHT22;47029;50.994;2.876;2022-09-14T14:33:19;16.30;99.90
61151;DHT22;47029;50.994;2.876;2022-09-14T14:35:46;16.10;99.90
61151;DHT22;47029;50.994;2.876;2022-09-14T14:38:13;16.30;99.90
61151;DHT22;47029;50.994;2.876;2022-09-14T14:40:41;16.20;99.90
61151;DHT22;47029;50.994;2.876;2022-09-14T14:43:08;16.40;99.90
61151;DHT22;47029;50.994;2.876;2022-09-14T14:45:40;16.10;99.90
61151;DHT22;47029;50.994;2.876;2022-09-14T14:48:09;16.20;99.90
61151;DHT22;47029;50.994;2.876;2022-09-14T14:50:37;16.20;99.90
61151;DHT22;47029;50.994;2.876;2022-09-14T14:53:03;16.20;99.90
61151;DHT22;47029;50.994;2.876;2022-09-14T14:55:31;16.30;99.90
61151;DHT22;47029;50.994;2.876;2022-09-14T14:58:03;16.30;99.90
61151;DHT22;47029;50.994;2.876;2022-09-14T15:00:31;16.40;99.90
61151;DHT22;47029;50.994;2.876;2022-09-14T15:02:57;16.30;99.90
61151;DHT22;47029;50.994;2.876;2022-09-14T15:05:24;16.90;99.90
61151;DHT22;47029;50.994;2.876;2022-09-14T15:07:51;16.30;99.90
61151;DHT22;47029;50.994;2.876;2022-09-14T15:10:18;17.20;99.90
61151;DHT22;47029;50.994;2.876;2022-09-14T15:12:45;16.30;99.90
61151;DHT22;47029;50.994;2.876;2022-09-14T15:15:16;16.40;99.90
61151;DHT22;47029;50.994;2.876;2022-09-14T15:17:43;16.30;99.90
61151;DHT22;47029;50.994;2.876;2022-09-14T15:20:09;16.40;99.90
61151;DHT22;47029;50.994;2.876;2022-09-14T15:22:36;15.90;99.90
61151;DHT22;47029;50.994;2.876;2022-09-14T15:25:03;16.50;99.90
61151;DHT22;47029;50.994;2.876;2022-09-14T15:27:29;16.50;99.90
61151;DHT22;47029;50.994;2.876;2022-09-14T15:29:56;16.50;99.90
61151;DHT22;47029;50.994;2.876;2022-09-14T15:32:22;16.30;99.90
61151;DHT22;47029;50.994;2.876;2022-09-14T15:34:49;16.40;99.90
61151;DHT22;47029;50.994;2.876;2022-09-14T15:37:15;16.50;99.90
61151;DHT22;47029;50.994;2.876;2022-09-14T15:39:42;16.50;99.90
61151;DHT22;47029;50.994;2.876;2022-09-14T15:42:08;16.50;99.90
61151;DHT22;47029;50.994;2.876;2022-09-14T15:44:35;16.50;99.90
61151;DHT22;47029;50.994;2.876;2022-09-14T15:47:01;16.60;99.90
61151;DHT22;47029;50.994;2.876;2022-09-14T15:49:27;16.80;99.90
61151;DHT22;47029;50.994;2.876;2022-09-14T15:51:55;16.80;99.90
61151;DHT22;47029;50.994;2.876;2022-09-14T15:54:23;16.90;99.90
61151;DHT22;47029;50.994;2.876;2022-09-14T15:56:52;17.00;99.90
61151;DHT22;47029;50.994;2.876;2022-09-14T15:59:19;16.80;99.90
61151;DHT22;47029;50.994;2.876;2022-09-14T16:01:46;16.90;99.90
61151;DHT22;47029;50.994;2.876;2022-09-14T16:04:13;16.90;99.90
61151;DHT22;47029;50.994;2.876;2022-09-14T16:06:39;16.90;99.90
61151;DHT22;47029;50.994;2.876;2022-09-14T16:09:07;17.00;99.90
61151;DHT22;47029;50.994;2.876;2022-09-14T16:11:34;17.10;99.90
61151;DHT22;47029;50.994;2.876;2022-09-14T16:14:01;17.00;99.90
61151;DHT22;47029;50.994;2.876;2022-09-14T16:16:28;17.10;99.90
61151;DHT22;47029;50.994;2.876;2022-09-14T16:18:54;16.90;99.90
61151;DHT22;47029;50.994;2.876;2022-09-14T16:21:24;16.90;99.90
61151;DHT22;47029;50.994;2.876;2022-09-14T16:23:52;16.80;99.90
61151;DHT22;47029;50.994;2.876;2022-09-14T16:26:25;16.90;99.90
61151;DHT22;47029;50.994;2.876;2022-09-14T16:28:51;17.10;99.90
61151;DHT22;47029;50.994;2.876;2022-09-14T16:31:23;17.10;99.90
61151;DHT22;47029;50.994;2.876;2022-09-14T16:33:54;17.00;99.90
61151;DHT22;47029;50.994;2.876;2022-09-14T16:36:23;16.90;99.90
61151;DHT22;47029;50.994;2.876;2022-09-14T16:38:50;17.00;99.90
61151;DHT22;47029;50.994;2.876;2022-09-14T16:41:16;17.00;99.90
61151;DHT22;47029;50.994;2.876;2022-09-14T16:43:42;17.60;99.90
61151;DHT22;47029;50.994;2.876;2022-09-14T16:46:14;17.10;99.90
61151;DHT22;47029;50.994;2.876;2022-09-14T16:48:45;17.20;99.90
61151;DHT22;47029;50.994;2.876;2022-09-14T16:51:12;17.20;99.90
61151;DHT22;47029;50.994;2.876;2022-09-14T16:53:40;17.30;99.90
61151;DHT22;47029;50.994;2.876;2022-09-14T16:56:15;17.30;99.90
61151;DHT22;47029;50.994;2.876;2022-09-14T16:58:42;17.30;99.90
61151;DHT22;47029;50.994;2.876;2022-09-14T17:01:15;17.40;99.90
61151;DHT22;47029;50.994;2.876;2022-09-14T17:03:43;17.40;99.90
61151;DHT22;47029;50.994;2.876;2022-09-14T17:06:11;17.30;99.90
61151;DHT22;47029;50.994;2.876;2022-09-14T17:08:39;17.20;99.90
61151;DHT22;47029;50.994;2.876;2022-09-14T17:11:05;17.20;99.90
61151;DHT22;47029;50.994;2.876;2022-09-14T17:13:32;17.30;99.90
61151;DHT22;47029;50.994;2.876;2022-09-14T17:16:12;17.10;99.90
61151;DHT22;47029;50.994;2.876;2022-09-14T17:18:40;17.10;99.90
61151;DHT22;47029;50.994;2.876;2022-09-14T17:21:09;17.00;99.90
61151;DHT22;47029;50.994;2.876;2022-09-14T17:23:36;16.90;99.90
61151;DHT22;47029;50.994;2.876;2022-09-14T17:26:03;16.90;99.90
61151;DHT22;47029;50.994;2.876;2022-09-14T17:28:30;16.90;99.90
61151;DHT22;47029;50.994;2.876;2022-09-14T17:30:58;17.10;99.90
61151;DHT22;47029;50.994;2.876;2022-09-14T17:33:25;17.00;99.90
61151;DHT22;47029;50.994;2.876;2022-09-14T17:35:52;17.00;99.90
61151;DHT22;47029;50.994;2.876;2022-09-14T17:38:19;16.80;99.90
61151;DHT22;47029;50.994;2.876;2022-09-14T17:40:46;16.90;99.90
61151;DHT22;47029;50.994;2.876;2022-09-14T17:43:13;17.00;99.90
61151;DHT22;47029;50.994;2.876;2022-09-14T17:45:39;17.00;99.90
61151;DHT22;47029;50.994;2.876;2022-09-14T17:48:15;17.10;99.90
61151;DHT22;47029;50.994;2.876;2022-09-14T17:50:40;17.20;99.90
61151;DHT22;47029;50.994;2.876;2022-09-14T17:53:06;17.20;99.90
61151;DHT22;47029;50.994;2.876;2022-09-14T17:55:32;17.10;99.90
61151;DHT22;47029;50.994;2.876;2022-09-14T17:57:58;17.10;99.90
61151;DHT22;47029;50.994;2.876;2022-09-14T18:00:24;17.10;99.90
61151;DHT22;47029;50.994;2.876;2022-09-14T18:02:51;17.20;99.90
61151;DHT22;47029;50.994;2.876;2022-09-14T18:05:17;17.20;99.90
61151;DHT22;47029;50.994;2.876;2022-09-14T18:07:43;17.20;99.90
61151;DHT22;47029;50.994;2.876;2022-09-14T18:10:09;17.10;99.90